createdAt,value
2016-08-15T00:00:15.354Z,72
2016-08-15T00:00:39.530Z,72.1
2016-08-15T00:01:03.715Z,71.7
2016-08-15T00:01:27.878Z,72
2016-08-15T00:01:52.012Z,71.7
2016-08-15T00:02:16.154Z,72
2016-08-15T00:02:40.278Z,72.2
2016-08-15T00:03:04.383Z,71.9
2016-08-15T00:03:28.528Z,71.9
2016-08-15T00:03:52.634Z,71.9
2016-08-15T00:04:16.769Z,71.9
2016-08-15T00:04:40.877Z,72.3
2016-08-15T00:05:05.009Z,71.9
2016-08-15T00:05:29.139Z,72
2016-08-15T00:05:53.255Z,72
2016-08-15T00:06:17.409Z,71.9
2016-08-15T00:06:41.538Z,72
2016-08-15T00:07:05.633Z,72.3
2016-08-15T00:07:29.781Z,72
2016-08-15T00:07:53.926Z,72
2016-08-15T00:08:18.028Z,72
2016-08-15T00:08:42.151Z,72.5
2016-08-15T00:09:06.279Z,72.4
2016-08-15T00:09:30.406Z,72.1
2016-08-15T00:09:54.517Z,72.5
2016-08-15T00:10:18.685Z,72.2
2016-08-15T00:10:42.800Z,72.3
2016-08-15T00:11:06.938Z,72.4
2016-08-15T00:11:31.064Z,72.4
2016-08-15T00:11:55.178Z,72.3
2016-08-15T00:12:19.270Z,72
2016-08-15T00:12:43.375Z,72.4
2016-08-15T00:13:07.535Z,72.1
2016-08-15T00:13:31.655Z,72.3
2016-08-15T00:13:55.774Z,72.3
2016-08-15T00:14:19.896Z,72.5
2016-08-15T00:14:44.025Z,72.5
2016-08-15T00:15:08.193Z,72.4
2016-08-15T00:15:32.346Z,72
2016-08-15T00:15:56.498Z,72.1
2016-08-15T00:16:20.618Z,72.4
2016-08-15T00:16:44.759Z,72.2
2016-08-15T00:17:08.885Z,72.3
2016-08-15T00:17:32.992Z,72.1
2016-08-15T00:17:57.121Z,72.6
2016-08-15T00:18:21.240Z,72.5
2016-08-15T00:18:45.378Z,72.6
2016-08-15T00:19:10.111Z,72.5
2016-08-15T00:19:34.285Z,72.6
2016-08-15T00:19:58.388Z,72.6
2016-08-15T00:20:22.516Z,72.9
2016-08-15T00:20:46.652Z,73
2016-08-15T00:21:10.775Z,72.7
2016-08-15T00:21:34.924Z,73
2016-08-15T00:21:59.057Z,73.1
2016-08-15T00:22:23.204Z,72.9
2016-08-15T00:22:47.362Z,73.2
2016-08-15T00:23:11.475Z,72.6
2016-08-15T00:23:35.587Z,72.9
2016-08-15T00:23:59.739Z,72.6
2016-08-15T00:24:23.888Z,72.8
2016-08-15T00:24:48.040Z,73.1
2016-08-15T00:25:12.184Z,73.3
2016-08-15T00:25:36.313Z,73
2016-08-15T00:26:00.429Z,72.9
2016-08-15T00:26:24.592Z,73.1
2016-08-15T00:26:48.694Z,73.1
2016-08-15T00:27:12.783Z,72.9
2016-08-15T00:27:36.923Z,72.9
2016-08-15T00:28:01.081Z,73.2
2016-08-15T00:28:25.211Z,73.1
2016-08-15T00:28:49.330Z,73.4
2016-08-15T00:29:13.487Z,73.3
2016-08-15T00:29:37.618Z,73.4
2016-08-15T00:30:01.741Z,73.3
2016-08-15T00:30:25.908Z,73.1
2016-08-15T00:30:50.048Z,73.3
2016-08-15T00:31:14.172Z,74
2016-08-15T00:31:38.311Z,74
2016-08-15T00:32:02.450Z,73.6
2016-08-15T00:32:26.611Z,73.6
2016-08-15T00:32:50.724Z,73.7
2016-08-15T00:33:14.845Z,73.6
2016-08-15T00:33:38.985Z,73.6
2016-08-15T00:34:03.099Z,73.6
2016-08-15T00:34:27.218Z,74
2016-08-15T00:34:51.335Z,73.7
2016-08-15T00:35:15.460Z,73.9
2016-08-15T00:35:39.594Z,73.3
2016-08-15T00:36:03.734Z,74
2016-08-15T00:36:27.862Z,73.8
2016-08-15T00:36:52.056Z,73.7
2016-08-15T00:37:16.185Z,74
2016-08-15T00:37:40.330Z,73.7
2016-08-15T00:38:04.435Z,73.9
2016-08-15T00:38:28.627Z,73.7
2016-08-15T00:38:52.790Z,73.6
2016-08-15T00:39:16.957Z,73.7
2016-08-15T00:39:41.167Z,73.4
2016-08-15T00:40:05.329Z,73.8
2016-08-15T00:40:29.467Z,73.7
2016-08-15T00:40:53.562Z,73.7
2016-08-15T00:41:17.755Z,73.5
2016-08-15T00:41:41.908Z,73.5
2016-08-15T00:42:06.031Z,73.9
2016-08-15T00:42:30.205Z,73.7
2016-08-15T00:42:54.331Z,73.9
2016-08-15T00:43:18.520Z,73.6
2016-08-15T00:43:42.622Z,73.7
2016-08-15T00:44:06.777Z,73.7
2016-08-15T00:44:30.900Z,73.7
2016-08-15T00:44:55.039Z,73.6
2016-08-15T00:45:19.160Z,73.6
2016-08-15T00:45:43.308Z,73.8
2016-08-15T00:46:07.409Z,73.9
2016-08-15T00:46:31.593Z,73.7
2016-08-15T00:46:55.696Z,73.8
2016-08-15T00:47:19.852Z,73.7
2016-08-15T00:47:43.952Z,73.9
2016-08-15T00:48:08.068Z,73.8
2016-08-15T00:48:32.311Z,73.9
2016-08-15T00:48:56.403Z,73.8
2016-08-15T00:49:20.505Z,73.8
2016-08-15T00:49:44.667Z,73.8
2016-08-15T00:50:08.771Z,73.8
2016-08-15T00:50:32.900Z,73.8
2016-08-15T00:50:57.041Z,73.6
2016-08-15T00:51:21.162Z,73.7
2016-08-15T00:51:45.303Z,73.7
2016-08-15T00:52:09.427Z,73.8
2016-08-15T00:52:33.572Z,73.8
2016-08-15T00:52:57.775Z,73.5
2016-08-15T00:53:21.935Z,73.6
2016-08-15T00:53:46.101Z,73.4
2016-08-15T00:54:10.217Z,73.7
2016-08-15T00:54:34.380Z,73.6
2016-08-15T00:54:58.513Z,73.7
2016-08-15T00:55:22.651Z,73.7
2016-08-15T00:55:46.773Z,73.4
2016-08-15T00:56:10.957Z,73.7
2016-08-15T00:56:35.103Z,73.7
2016-08-15T00:56:59.216Z,73.8
2016-08-15T00:57:23.352Z,73.3
2016-08-15T00:57:47.480Z,73.8
2016-08-15T00:58:11.589Z,73.7
2016-08-15T00:58:35.730Z,73.9
2016-08-15T00:58:59.879Z,73.8
2016-08-15T00:59:24.047Z,73.9
2016-08-15T00:59:48.176Z,73.8
2016-08-15T01:00:12.284Z,73.5
2016-08-15T01:00:36.430Z,73.6
2016-08-15T01:01:00.595Z,73.4
2016-08-15T01:01:24.737Z,73.7
2016-08-15T01:01:48.861Z,74
2016-08-15T01:02:12.959Z,73.6
2016-08-15T01:02:37.077Z,74.6
2016-08-15T01:03:01.190Z,74.4
2016-08-15T01:03:25.314Z,74.3
2016-08-15T01:03:49.420Z,74.2
2016-08-15T01:04:13.552Z,74.4
2016-08-15T01:04:37.691Z,74.1
2016-08-15T01:05:01.807Z,74.1
2016-08-15T01:05:25.905Z,74.4
2016-08-15T01:05:50.006Z,74.2
2016-08-15T01:06:14.149Z,74.5
2016-08-15T01:06:38.277Z,74
2016-08-15T01:07:02.408Z,74.4
2016-08-15T01:07:26.536Z,74.4
2016-08-15T01:07:50.658Z,74.4
2016-08-15T01:08:14.796Z,74.4
2016-08-15T01:08:38.912Z,74.4
2016-08-15T01:09:03.027Z,74.4
2016-08-15T01:09:27.131Z,74.8
2016-08-15T01:09:51.274Z,74.4
2016-08-15T01:10:15.411Z,74.4
2016-08-15T01:10:39.528Z,74.1
2016-08-15T01:11:03.633Z,74.1
2016-08-15T01:11:27.749Z,74.4
2016-08-15T01:11:51.880Z,74.1
2016-08-15T01:12:16.001Z,74.3
2016-08-15T01:12:40.102Z,74.5
2016-08-15T01:13:04.221Z,74.2
2016-08-15T01:13:28.356Z,74.3
2016-08-15T01:13:52.528Z,74.3
2016-08-15T01:14:16.678Z,74.1
2016-08-15T01:14:40.807Z,74.3
2016-08-15T01:15:04.954Z,74.1
2016-08-15T01:15:29.077Z,74.2
2016-08-15T01:15:53.236Z,74.2
2016-08-15T01:16:17.359Z,74.1
2016-08-15T01:16:41.517Z,74.2
2016-08-15T01:17:05.619Z,74.4
2016-08-15T01:17:29.865Z,74.5
2016-08-15T01:17:53.985Z,74.5
2016-08-15T01:18:18.106Z,74.8
2016-08-15T01:18:42.201Z,74.2
2016-08-15T01:19:06.363Z,74.7
2016-08-15T01:19:30.486Z,74.5
2016-08-15T01:19:54.571Z,74.4
2016-08-15T01:20:18.715Z,74.5
2016-08-15T01:20:42.818Z,74.9
2016-08-15T01:21:06.946Z,74.9
2016-08-15T01:21:31.076Z,74.7
2016-08-15T01:21:55.195Z,74.8
2016-08-15T01:22:19.302Z,74.8
2016-08-15T01:22:43.449Z,74.7
2016-08-15T01:23:07.589Z,74.7
2016-08-15T01:23:31.731Z,74.8
2016-08-15T01:23:55.828Z,74.9
2016-08-15T01:24:19.934Z,74.4
2016-08-15T01:24:44.062Z,75.1
2016-08-15T01:25:08.176Z,75.3
2016-08-15T01:25:32.333Z,75.3
2016-08-15T01:25:56.536Z,74.6
2016-08-15T01:26:20.669Z,74.6
2016-08-15T01:26:44.797Z,74.6
2016-08-15T01:27:08.914Z,74.8
2016-08-15T01:27:33.012Z,75
2016-08-15T01:27:57.123Z,74.7
2016-08-15T01:28:21.293Z,74.7
2016-08-15T01:28:45.451Z,74.9
2016-08-15T01:29:09.548Z,74.7
2016-08-15T01:29:33.670Z,74.9
2016-08-15T01:29:57.814Z,74.8
2016-08-15T01:30:21.933Z,74.8
2016-08-15T01:30:46.064Z,74.9
2016-08-15T01:31:10.171Z,74.8
2016-08-15T01:31:34.289Z,75.1
2016-08-15T01:31:58.410Z,75
2016-08-15T01:32:22.544Z,74.8
2016-08-15T01:32:46.694Z,75
2016-08-15T01:33:10.856Z,74.9
2016-08-15T01:33:34.994Z,74.9
2016-08-15T01:33:59.102Z,74.7
2016-08-15T01:34:23.201Z,75.1
2016-08-15T01:34:47.302Z,75
2016-08-15T01:35:11.429Z,74.7
2016-08-15T01:35:35.540Z,74.8
2016-08-15T01:35:59.664Z,74.7
2016-08-15T01:36:23.782Z,74.8
2016-08-15T01:36:47.869Z,74.9
2016-08-15T01:37:11.963Z,74.8
2016-08-15T01:37:36.087Z,74.9
2016-08-15T01:38:00.250Z,74.8
2016-08-15T01:38:24.385Z,74.7
2016-08-15T01:38:48.499Z,74.7
2016-08-15T01:39:12.615Z,74.7
2016-08-15T01:39:36.735Z,74.7
2016-08-15T01:40:00.878Z,75
2016-08-15T01:40:24.996Z,74.8
2016-08-15T01:40:49.116Z,74.6
2016-08-15T01:41:13.213Z,74.5
2016-08-15T01:41:37.316Z,74.5
2016-08-15T01:42:01.419Z,74.4
2016-08-15T01:42:25.590Z,74.4
2016-08-15T01:42:49.692Z,74.4
2016-08-15T01:43:13.845Z,74.4
2016-08-15T01:43:37.981Z,74.5
2016-08-15T01:44:02.108Z,74.2
2016-08-15T01:44:26.239Z,74.3
2016-08-15T01:44:50.363Z,74.5
2016-08-15T01:45:14.506Z,74.2
2016-08-15T01:45:38.633Z,74.4
2016-08-15T01:46:02.743Z,74.4
2016-08-15T01:46:26.857Z,74.2
2016-08-15T01:46:51.006Z,74.4
2016-08-15T01:47:15.147Z,74.4
2016-08-15T01:47:39.303Z,74.3
2016-08-15T01:48:03.547Z,74.3
2016-08-15T01:48:27.673Z,74.2
2016-08-15T01:48:51.863Z,74.4
2016-08-15T01:49:15.972Z,74.4
2016-08-15T01:49:40.089Z,74.2
2016-08-15T01:50:04.200Z,74.1
2016-08-15T01:50:28.338Z,74.2
2016-08-15T01:50:52.458Z,74.4
2016-08-15T01:51:16.576Z,74.3
2016-08-15T01:51:40.698Z,74.2
2016-08-15T01:52:04.847Z,74
2016-08-15T01:52:28.974Z,74.3
2016-08-15T01:52:53.114Z,74.2
2016-08-15T01:53:17.255Z,74.2
2016-08-15T01:53:41.378Z,74.4
2016-08-15T01:54:05.493Z,74.5
2016-08-15T01:54:29.598Z,74.5
2016-08-15T01:54:53.751Z,74.3
2016-08-15T01:55:17.900Z,74.4
2016-08-15T01:55:42.043Z,74.4
2016-08-15T01:56:06.176Z,74.4
2016-08-15T01:56:30.297Z,74.4
2016-08-15T01:56:54.414Z,74.3
2016-08-15T01:57:18.564Z,74.7
2016-08-15T01:57:42.666Z,74.6
2016-08-15T01:58:06.807Z,74.4
2016-08-15T01:58:30.949Z,74.6
2016-08-15T01:58:55.107Z,74.8
2016-08-15T01:59:19.232Z,74.3
2016-08-15T01:59:43.361Z,74.5
2016-08-15T02:00:07.582Z,74.7
2016-08-15T02:00:31.698Z,74.4
2016-08-15T02:00:55.807Z,74.6
2016-08-15T02:01:20.001Z,74.8
2016-08-15T02:01:44.168Z,74.6
2016-08-15T02:02:08.276Z,74.8
2016-08-15T02:02:32.414Z,74.4
2016-08-15T02:02:56.538Z,74.4
2016-08-15T02:03:20.659Z,74.6
2016-08-15T02:03:44.795Z,74.3
2016-08-15T02:04:08.969Z,74.6
2016-08-15T02:04:33.114Z,74.4
2016-08-15T02:04:57.231Z,74.6
2016-08-15T02:05:21.335Z,74.6
2016-08-15T02:05:45.459Z,74.3
2016-08-15T02:06:09.611Z,74.4
2016-08-15T02:06:33.794Z,74.2
2016-08-15T02:06:57.957Z,74.6
2016-08-15T02:07:22.070Z,74.5
2016-08-15T02:07:46.188Z,74.4
2016-08-15T02:08:10.321Z,74.6
2016-08-15T02:08:34.444Z,74.3
2016-08-15T02:08:58.585Z,74.6
2016-08-15T02:09:22.687Z,74.1
2016-08-15T02:09:46.836Z,74.2
2016-08-15T02:10:11.018Z,74.4
2016-08-15T02:10:35.165Z,74.1
2016-08-15T02:10:59.317Z,74.2
2016-08-15T02:11:23.460Z,74.4
2016-08-15T02:11:47.597Z,74.4
2016-08-15T02:12:11.708Z,74.2
2016-08-15T02:12:35.877Z,74.2
2016-08-15T02:13:00.000Z,74.9
2016-08-15T02:13:24.126Z,74.5
2016-08-15T02:13:48.285Z,74.5
2016-08-15T02:14:12.449Z,74.4
2016-08-15T02:14:36.583Z,74.6
2016-08-15T02:15:00.766Z,74.5
2016-08-15T02:15:24.926Z,74.8
2016-08-15T02:15:49.043Z,74.6
2016-08-15T02:16:14.051Z,74.5
2016-08-15T02:16:38.167Z,74.4
2016-08-15T02:17:02.300Z,74.6
2016-08-15T02:17:26.423Z,74.6
2016-08-15T02:17:50.575Z,74.6
2016-08-15T02:18:14.743Z,74.6
2016-08-15T02:18:38.909Z,74.5
2016-08-15T02:19:03.068Z,74.4
2016-08-15T02:19:27.179Z,74.2
2016-08-15T02:19:51.355Z,74.8
2016-08-15T02:20:15.494Z,74.4
2016-08-15T02:20:39.604Z,74
2016-08-15T02:21:03.737Z,74.5
2016-08-15T02:21:27.878Z,74.4
2016-08-15T02:21:52.037Z,74.1
2016-08-15T02:22:16.192Z,74.7
2016-08-15T02:22:40.295Z,74.6
2016-08-15T02:23:04.462Z,74.7
2016-08-15T02:23:28.605Z,74.6
2016-08-15T02:23:52.749Z,74.4
2016-08-15T02:24:16.900Z,74.5
2016-08-15T02:24:41.079Z,74.4
2016-08-15T02:25:05.227Z,74.6
2016-08-15T02:25:29.366Z,74.6
2016-08-15T02:25:53.498Z,74.3
2016-08-15T02:26:17.616Z,74.4
2016-08-15T02:26:41.796Z,74.5
2016-08-15T02:27:05.962Z,74.7
2016-08-15T02:27:30.102Z,74.7
2016-08-15T02:27:54.251Z,74.4
2016-08-15T02:28:18.393Z,74.2
2016-08-15T02:28:42.529Z,74.2
2016-08-15T02:29:06.699Z,74.5
2016-08-15T02:29:30.824Z,74.1
2016-08-15T02:29:54.989Z,74.2
2016-08-15T02:30:19.130Z,74.5
2016-08-15T02:30:43.257Z,74.2
2016-08-15T02:31:07.356Z,74.2
2016-08-15T02:31:31.475Z,74.4
2016-08-15T02:31:55.673Z,74
2016-08-15T02:32:19.828Z,74.3
2016-08-15T02:32:43.927Z,74.2
2016-08-15T02:33:08.105Z,74
2016-08-15T02:33:32.223Z,74.1
2016-08-15T02:33:56.376Z,74.4
2016-08-15T02:34:20.528Z,74.6
2016-08-15T02:34:44.652Z,74.5
2016-08-15T02:35:08.801Z,74.5
2016-08-15T02:35:32.981Z,74.4
2016-08-15T02:35:57.112Z,74.2
2016-08-15T02:36:21.280Z,74.6
2016-08-15T02:36:45.454Z,74.6
2016-08-15T02:37:09.612Z,74.2
2016-08-15T02:37:33.728Z,74.4
2016-08-15T02:37:57.844Z,74.2
2016-08-15T02:38:21.952Z,74.4
2016-08-15T02:38:46.088Z,74.6
2016-08-15T02:39:10.244Z,74.5
2016-08-15T02:39:34.380Z,74.2
2016-08-15T02:39:58.502Z,74.4
2016-08-15T02:40:22.604Z,74.2
2016-08-15T02:40:46.744Z,74.6
2016-08-15T02:41:10.878Z,74.6
2016-08-15T02:41:34.995Z,74.3
2016-08-15T02:41:59.102Z,74.6
2016-08-15T02:42:23.257Z,74.6
2016-08-15T02:42:47.357Z,74.6
2016-08-15T02:43:11.504Z,74.3
2016-08-15T02:43:35.632Z,74.6
2016-08-15T02:43:59.754Z,74.7
2016-08-15T02:44:23.884Z,74.4
2016-08-15T02:44:48.076Z,74.4
2016-08-15T02:45:12.198Z,74.6
2016-08-15T02:45:36.364Z,74.5
2016-08-15T02:46:00.463Z,74.5
2016-08-15T02:46:24.588Z,74.4
2016-08-15T02:46:48.692Z,74.5
2016-08-15T02:47:12.823Z,74.5
2016-08-15T02:47:36.947Z,74.5
2016-08-15T02:48:01.075Z,74.6
2016-08-15T02:48:25.198Z,74.7
2016-08-15T02:48:49.300Z,74.5
2016-08-15T02:49:13.453Z,74.5
2016-08-15T02:49:37.562Z,74.6
2016-08-15T02:50:01.672Z,74.8
2016-08-15T02:50:25.820Z,74.8
2016-08-15T02:50:49.971Z,74.8
2016-08-15T02:51:14.127Z,75
2016-08-15T02:51:38.291Z,74.7
2016-08-15T02:52:02.409Z,74.7
2016-08-15T02:52:26.560Z,74.9
2016-08-15T02:52:50.749Z,74.9
2016-08-15T02:53:14.871Z,74.7
2016-08-15T02:53:38.975Z,74.9
2016-08-15T02:54:03.078Z,74.9
2016-08-15T02:54:27.195Z,74.9
2016-08-15T02:54:51.337Z,74.6
2016-08-15T02:55:15.487Z,74.7
2016-08-15T02:55:39.593Z,74.6
2016-08-15T02:56:03.709Z,75.2
2016-08-15T02:56:27.820Z,75.2
2016-08-15T02:56:51.941Z,74.5
2016-08-15T02:57:16.071Z,75.2
2016-08-15T02:57:40.188Z,74.9
2016-08-15T02:58:04.322Z,75
2016-08-15T02:58:28.451Z,74.8
2016-08-15T02:58:52.556Z,74.7
2016-08-15T02:59:16.690Z,74.5
2016-08-15T02:59:40.840Z,74.5
2016-08-15T03:00:04.971Z,74.5
2016-08-15T03:00:29.099Z,74.7
2016-08-15T03:00:53.326Z,74.7
2016-08-15T03:01:17.488Z,74.5
2016-08-15T03:01:41.588Z,75.2
2016-08-15T03:02:05.695Z,74.5
2016-08-15T03:02:29.796Z,74.9
2016-08-15T03:02:53.913Z,74.7
2016-08-15T03:03:18.054Z,74.5
2016-08-15T03:03:42.383Z,74.5
2016-08-15T03:04:06.504Z,74.8
2016-08-15T03:04:30.645Z,74.9
2016-08-15T03:04:54.771Z,74.7
2016-08-15T03:05:18.917Z,75.2
2016-08-15T03:05:43.048Z,74.8
2016-08-15T03:06:07.144Z,74.6
2016-08-15T03:06:31.303Z,74.9
2016-08-15T03:06:55.437Z,74.8
2016-08-15T03:07:19.577Z,74.7
2016-08-15T03:07:43.714Z,74.5
2016-08-15T03:08:07.871Z,75
2016-08-15T03:08:31.973Z,75
2016-08-15T03:08:56.129Z,74.5
2016-08-15T03:09:20.296Z,74.7
2016-08-15T03:09:44.408Z,75
2016-08-15T03:10:08.532Z,74.5
2016-08-15T03:10:32.660Z,74.7
2016-08-15T03:10:56.822Z,74.8
2016-08-15T03:11:20.919Z,75
2016-08-15T03:11:45.055Z,74.5
2016-08-15T03:12:09.174Z,74.4
2016-08-15T03:12:33.287Z,74.5
2016-08-15T03:12:57.410Z,74.7
2016-08-15T03:13:21.604Z,74.9
2016-08-15T03:13:45.712Z,74.7
2016-08-15T03:14:09.846Z,74.4
2016-08-15T03:14:33.973Z,74.5
2016-08-15T03:14:58.121Z,75.1
2016-08-15T03:15:22.254Z,74.9
2016-08-15T03:15:46.395Z,75
2016-08-15T03:16:10.519Z,75.2
2016-08-15T03:16:34.638Z,75.3
2016-08-15T03:16:58.782Z,75.1
2016-08-15T03:17:22.907Z,75.6
2016-08-15T03:17:47.014Z,75.2
2016-08-15T03:18:11.143Z,75.3
2016-08-15T03:18:35.289Z,75.2
2016-08-15T03:18:59.408Z,75.4
2016-08-15T03:19:23.522Z,75.2
2016-08-15T03:19:47.653Z,75.2
2016-08-15T03:20:11.782Z,75.3
2016-08-15T03:20:35.901Z,75.3
2016-08-15T03:21:00.025Z,75.4
2016-08-15T03:21:24.193Z,75.3
2016-08-15T03:21:48.308Z,75.1
2016-08-15T03:22:12.435Z,75.1
2016-08-15T03:22:36.619Z,75.2
2016-08-15T03:23:00.777Z,75
2016-08-15T03:23:24.894Z,75.1
2016-08-15T03:23:49.102Z,75
2016-08-15T03:24:13.214Z,75.3
2016-08-15T03:24:37.386Z,75.5
2016-08-15T03:25:01.507Z,75.4
2016-08-15T03:25:25.651Z,75.4
2016-08-15T03:25:49.776Z,75.7
2016-08-15T03:26:13.910Z,75.4
2016-08-15T03:26:38.064Z,75.3
2016-08-15T03:27:02.149Z,75.5
2016-08-15T03:27:26.304Z,75.2
2016-08-15T03:27:50.481Z,75.2
2016-08-15T03:28:14.586Z,75.3
2016-08-15T03:28:38.713Z,75.3
2016-08-15T03:29:02.872Z,75.5
2016-08-15T03:29:26.979Z,75.3
2016-08-15T03:29:51.105Z,75.2
2016-08-15T03:30:15.216Z,75.3
2016-08-15T03:30:39.322Z,75.5
2016-08-15T03:31:03.454Z,75.8
2016-08-15T03:31:27.549Z,75.1
2016-08-15T03:31:51.661Z,75.5
2016-08-15T03:32:15.786Z,75.5
2016-08-15T03:32:39.915Z,75.5
2016-08-15T03:33:04.022Z,75.5
2016-08-15T03:33:28.171Z,75.6
2016-08-15T03:33:52.272Z,75.8
2016-08-15T03:34:16.387Z,75.5
2016-08-15T03:34:40.873Z,75.5
2016-08-15T03:35:04.986Z,75.6
2016-08-15T03:35:29.107Z,75.7
2016-08-15T03:35:53.239Z,75.9
2016-08-15T03:36:17.423Z,75.3
2016-08-15T03:36:41.558Z,75.8
2016-08-15T03:37:05.690Z,75.3
2016-08-15T03:37:29.823Z,75.3
2016-08-15T03:37:53.944Z,75.3
2016-08-15T03:38:18.054Z,76
2016-08-15T03:38:42.177Z,75.4
2016-08-15T03:39:06.287Z,75.7
2016-08-15T03:39:30.408Z,75.5
2016-08-15T03:39:54.536Z,75.3
2016-08-15T03:40:18.678Z,75.5
2016-08-15T03:40:42.811Z,75.5
2016-08-15T03:41:06.942Z,75.4
2016-08-15T03:41:31.063Z,75.2
2016-08-15T03:41:55.166Z,75.4
2016-08-15T03:42:19.288Z,75.3
2016-08-15T03:42:43.429Z,75.5
2016-08-15T03:43:07.560Z,75.5
2016-08-15T03:43:31.688Z,75.3
2016-08-15T03:43:57.060Z,75.2
2016-08-15T03:44:21.166Z,75
2016-08-15T03:44:45.312Z,74.8
2016-08-15T03:45:09.439Z,75.3
2016-08-15T03:45:33.577Z,75.7
2016-08-15T03:45:57.721Z,75.4
2016-08-15T03:46:21.863Z,75.7
2016-08-15T03:46:45.994Z,75.4
2016-08-15T03:47:10.128Z,75.5
2016-08-15T03:47:34.287Z,75.4
2016-08-15T03:47:58.427Z,75.5
2016-08-15T03:48:22.579Z,75.7
2016-08-15T03:48:46.684Z,75.9
2016-08-15T03:49:10.804Z,75.4
2016-08-15T03:49:34.921Z,75.5
2016-08-15T03:49:59.040Z,75.7
2016-08-15T03:50:23.159Z,75.4
2016-08-15T03:50:47.277Z,75.4
2016-08-15T03:51:11.417Z,75.4
2016-08-15T03:51:35.538Z,75.4
2016-08-15T03:51:59.688Z,75.6
2016-08-15T03:52:23.799Z,75.3
2016-08-15T03:52:47.927Z,75.6
2016-08-15T03:53:12.026Z,75.4
2016-08-15T03:53:36.145Z,75.4
2016-08-15T03:54:00.287Z,75.5
2016-08-15T03:54:24.429Z,75.6
2016-08-15T03:54:48.552Z,75.2
2016-08-15T03:55:12.698Z,75.2
2016-08-15T03:55:36.868Z,75.2
2016-08-15T03:56:00.973Z,75.3
2016-08-15T03:56:25.100Z,75.1
2016-08-15T03:56:49.233Z,75.3
2016-08-15T03:57:13.401Z,75.4
2016-08-15T03:57:37.500Z,75.1
2016-08-15T03:58:01.668Z,75.1
2016-08-15T03:58:25.796Z,75.3
2016-08-15T03:58:49.931Z,75.4
2016-08-15T03:59:14.091Z,75.4
2016-08-15T03:59:38.219Z,75.5
2016-08-15T04:00:02.584Z,75.4
2016-08-15T04:00:26.697Z,75.7
2016-08-15T04:00:50.806Z,75.8
2016-08-15T04:01:14.921Z,75.4
2016-08-15T04:01:39.127Z,75.4
2016-08-15T04:02:03.245Z,75.4
2016-08-15T04:02:27.351Z,75.7
2016-08-15T04:02:51.492Z,75.9
2016-08-15T04:03:15.631Z,75.7
2016-08-15T04:03:39.805Z,75.4
2016-08-15T04:04:03.924Z,75.4
2016-08-15T04:04:28.021Z,75.5
2016-08-15T04:04:52.151Z,75.5
2016-08-15T04:05:16.357Z,75.5
2016-08-15T04:05:40.512Z,75.5
2016-08-15T04:06:04.621Z,75.5
2016-08-15T04:06:28.755Z,75.4
2016-08-15T04:06:52.886Z,75.4
2016-08-15T04:07:17.039Z,75.2
2016-08-15T04:07:41.210Z,75.4
2016-08-15T04:08:05.356Z,75.3
2016-08-15T04:08:29.529Z,75.5
2016-08-15T04:08:53.704Z,75.5
2016-08-15T04:09:17.830Z,75.3
2016-08-15T04:09:41.965Z,75.5
2016-08-15T04:10:06.108Z,75.4
2016-08-15T04:10:30.308Z,75.4
2016-08-15T04:10:54.426Z,75.5
2016-08-15T04:11:18.534Z,75.4
2016-08-15T04:11:42.649Z,75.5
2016-08-15T04:12:06.786Z,75.5
2016-08-15T04:12:30.935Z,75.5
2016-08-15T04:12:55.079Z,75.5
2016-08-15T04:13:19.201Z,75.3
2016-08-15T04:13:43.322Z,75.5
2016-08-15T04:14:07.469Z,75.4
2016-08-15T04:14:31.579Z,75.6
2016-08-15T04:14:55.712Z,75.6
2016-08-15T04:15:19.859Z,75.8
2016-08-15T04:15:43.991Z,75.4
2016-08-15T04:16:08.132Z,75.5
2016-08-15T04:16:32.246Z,75.7
2016-08-15T04:16:56.384Z,75.8
2016-08-15T04:17:20.502Z,75.7
2016-08-15T04:17:44.615Z,75.7
2016-08-15T04:18:08.783Z,75.7
2016-08-15T04:18:32.959Z,75.6
2016-08-15T04:18:57.074Z,75.6
2016-08-15T04:19:21.209Z,75.5
2016-08-15T04:19:45.370Z,76.3
2016-08-15T04:20:09.520Z,76.4
2016-08-15T04:20:33.638Z,75.6
2016-08-15T04:20:57.756Z,75.7
2016-08-15T04:21:21.931Z,75.7
2016-08-15T04:21:46.065Z,75.6
2016-08-15T04:22:10.187Z,75.7
2016-08-15T04:22:34.316Z,75.7
2016-08-15T04:22:58.458Z,75.9
2016-08-15T04:23:22.686Z,75.7
2016-08-15T04:23:46.824Z,75.9
2016-08-15T04:24:10.967Z,75.9
2016-08-15T04:24:35.084Z,75.8
2016-08-15T04:24:59.235Z,75.7
2016-08-15T04:25:23.414Z,75.9
2016-08-15T04:25:47.524Z,75.7
2016-08-15T04:26:11.688Z,75.4
2016-08-15T04:26:35.830Z,75.5
2016-08-15T04:26:59.953Z,75.6
2016-08-15T04:27:24.088Z,75.5
2016-08-15T04:27:48.244Z,75.2
2016-08-15T04:28:12.360Z,75.2
2016-08-15T04:28:36.503Z,75.1
2016-08-15T04:29:00.647Z,75.2
2016-08-15T04:29:24.776Z,75.3
2016-08-15T04:29:48.916Z,75
2016-08-15T04:30:13.048Z,74.9
2016-08-15T04:30:37.167Z,75.2
2016-08-15T04:31:01.295Z,75.3
2016-08-15T04:31:25.491Z,75.2
2016-08-15T04:31:49.612Z,75
2016-08-15T04:32:13.771Z,75.1
2016-08-15T04:32:37.892Z,75.3
2016-08-15T04:33:02.011Z,75.3
2016-08-15T04:33:26.144Z,75.2
2016-08-15T04:33:50.264Z,74.7
2016-08-15T04:34:14.417Z,74.5
2016-08-15T04:34:38.600Z,75
2016-08-15T04:35:02.710Z,74.8
2016-08-15T04:35:26.815Z,74.7
2016-08-15T04:35:50.948Z,75
2016-08-15T04:36:15.103Z,74.9
2016-08-15T04:36:39.249Z,74.8
2016-08-15T04:37:03.377Z,75.2
2016-08-15T04:37:27.506Z,74.8
2016-08-15T04:37:51.629Z,74.8
2016-08-15T04:38:15.777Z,75.2
2016-08-15T04:38:39.926Z,74.9
2016-08-15T04:39:04.056Z,74.4
2016-08-15T04:39:28.174Z,74.4
2016-08-15T04:39:52.365Z,74.6
2016-08-15T04:40:16.507Z,74.6
2016-08-15T04:40:40.629Z,74.5
2016-08-15T04:41:04.781Z,74.7
2016-08-15T04:41:28.911Z,74.7
2016-08-15T04:41:53.062Z,74.3
2016-08-15T04:42:17.184Z,74.4
2016-08-15T04:42:41.307Z,74.6
2016-08-15T04:43:05.424Z,74.6
2016-08-15T04:43:29.568Z,74.8
2016-08-15T04:43:53.727Z,74.6
2016-08-15T04:44:17.864Z,74.6
2016-08-15T04:44:41.987Z,74.7
2016-08-15T04:45:06.101Z,75
2016-08-15T04:45:30.237Z,74.4
2016-08-15T04:45:54.385Z,74.3
2016-08-15T04:46:18.508Z,74.6
2016-08-15T04:46:42.641Z,74.4
2016-08-15T04:47:06.790Z,74.3
2016-08-15T04:47:30.940Z,74.5
2016-08-15T04:47:55.095Z,74.4
2016-08-15T04:48:19.212Z,74.2
2016-08-15T04:48:43.337Z,74.3
2016-08-15T04:49:07.475Z,74.4
2016-08-15T04:49:31.595Z,74.4
2016-08-15T04:49:55.723Z,74.3
2016-08-15T04:50:19.852Z,74.3
2016-08-15T04:50:43.991Z,74.2
2016-08-15T04:51:08.140Z,74.2
2016-08-15T04:51:32.289Z,74.3
2016-08-15T04:51:56.415Z,74.4
2016-08-15T04:52:21.443Z,74.4
2016-08-15T04:52:45.597Z,74.2
2016-08-15T04:53:09.749Z,74.6
2016-08-15T04:53:33.891Z,74.6
2016-08-15T04:53:58.020Z,74.6
2016-08-15T04:54:22.142Z,74.7
2016-08-15T04:54:46.272Z,74.6
2016-08-15T04:55:11.305Z,74.6
2016-08-15T04:55:35.462Z,74.6
2016-08-15T04:55:59.597Z,74.7
2016-08-15T04:56:23.699Z,74.5
2016-08-15T04:56:47.819Z,74.2
2016-08-15T04:57:11.952Z,74.4
2016-08-15T04:57:36.092Z,74.6
2016-08-15T04:58:00.193Z,74.7
2016-08-15T04:58:24.321Z,74.6
2016-08-15T04:58:48.488Z,74.4
2016-08-15T04:59:12.633Z,74.4
2016-08-15T04:59:36.754Z,74.6
2016-08-15T05:00:00.886Z,74.7
2016-08-15T05:00:25.003Z,74.7
2016-08-15T05:00:49.090Z,74.4
2016-08-15T05:01:13.222Z,74.3
2016-08-15T05:01:37.353Z,74.5
2016-08-15T05:02:01.455Z,74.9
2016-08-15T05:02:25.586Z,74.5
2016-08-15T05:02:49.723Z,74
2016-08-15T05:03:13.827Z,74
2016-08-15T05:03:37.941Z,74
2016-08-15T05:04:02.090Z,74
2016-08-15T05:04:26.193Z,74
2016-08-15T05:04:50.303Z,74.1
2016-08-15T05:05:14.409Z,74.2
2016-08-15T05:05:38.537Z,74.6
2016-08-15T05:06:02.662Z,74.3
2016-08-15T05:06:26.807Z,74.2
2016-08-15T05:06:50.935Z,74.6
2016-08-15T05:07:15.052Z,74.3
2016-08-15T05:07:39.191Z,74
2016-08-15T05:08:03.326Z,74.1
2016-08-15T05:08:27.445Z,74.4
2016-08-15T05:08:51.561Z,74.9
2016-08-15T05:09:15.690Z,73.8
2016-08-15T05:09:39.878Z,73.6
2016-08-15T05:10:04.018Z,74
2016-08-15T05:10:28.106Z,73.8
2016-08-15T05:10:52.266Z,73.9
2016-08-15T05:11:16.508Z,74.2
2016-08-15T05:11:40.668Z,74.1
2016-08-15T05:12:04.813Z,74.1
2016-08-15T05:12:28.950Z,73.8
2016-08-15T05:12:53.273Z,74
2016-08-15T05:13:17.385Z,74.1
2016-08-15T05:13:41.493Z,73.7
2016-08-15T05:14:05.635Z,73.9
2016-08-15T05:14:29.769Z,74.2
2016-08-15T05:14:53.906Z,74.1
2016-08-15T05:15:18.024Z,74.4
2016-08-15T05:15:42.133Z,73.8
2016-08-15T05:16:06.267Z,74.3
2016-08-15T05:16:30.387Z,73.7
2016-08-15T05:16:54.524Z,73.9
2016-08-15T05:17:18.639Z,73.7
2016-08-15T05:17:42.774Z,73.7
2016-08-15T05:18:06.912Z,73.3
2016-08-15T05:18:31.059Z,73.3
2016-08-15T05:18:55.164Z,73.6
2016-08-15T05:19:19.294Z,73.7
2016-08-15T05:19:43.435Z,73.2
2016-08-15T05:20:07.592Z,73.2
2016-08-15T05:20:31.726Z,73.9
2016-08-15T05:20:55.857Z,73.5
2016-08-15T05:21:19.986Z,73.6
2016-08-15T05:21:44.101Z,73.4
2016-08-15T05:22:08.220Z,73.2
2016-08-15T05:22:32.362Z,73.4
2016-08-15T05:22:56.515Z,74.1